KCAR/CAR METAR and TAF weather

Enter ICAO airport designator
Station Type Date Time Source
KCAR METAR 2022/01/29 01:54 UTC NOAA

KCAR 290154Z AUTO 35007KT 10SM OVC038 M18/M23 A3025 RMK AO2 SLP262 T11781228


Station Type Date Time Source
KCAR Decoded METAR 2022/01/29 01:54 UTC NOAA

CARIBOU MUNICIPAL AIRPORT, ME, United States (KCAR) 46-52N 68-01W 191M
Jan 28, 2022 - 08:54 PM EST / 2022.01.29 0154 UTC
Wind: from the N (350 degrees) at 8 MPH (7 KT):0
Visibility: 10 mile(s):0
Sky conditions: overcast
Temperature: -0.0 F (-17.8 C)
Windchill: -14 F (-26 C):2
Dew Point: -9.0 F (-22.8 C)
Relative Humidity: 64%
Pressure (altimeter): 30.25 in. Hg (1024 hPa)
ob: KCAR 290154Z AUTO 35007KT 10SM OVC038 M18/M23 A3025 RMK AO2 SLP262 T11781228
cycle: 2

Station Type Date Time Source
KCAR TAF 2022/01/28 19:34 UTC NOAA

TAF
AMD KCAR 281832Z 2819/2918 35007KT 2SM -SN BKN025
TEMPO 2819/2820 3/4SM -SN BKN015
FM282000 33009G17KT P6SM VCSH BKN035
FM282300 34008KT P6SM BKN050
FM291600 02011KT 3SM -SN BLSN OVC040

Example: see airport list